createdAt,value
2017-06-29T00:01:06.864Z,14.70
2017-06-29T00:03:34.369Z,14.60
2017-06-29T00:06:01.977Z,14.50
2017-06-29T00:08:29.637Z,14.50
2017-06-29T00:10:57.220Z,14.40
2017-06-29T00:13:24.752Z,14.40
2017-06-29T00:15:52.310Z,14.30
2017-06-29T00:18:19.862Z,14.30
2017-06-29T00:20:47.364Z,14.20
2017-06-29T00:23:15.027Z,14.20
2017-06-29T00:25:43.682Z,14.20
2017-06-29T00:28:11.259Z,14.20
2017-06-29T00:30:39.893Z,14.30
2017-06-29T00:33:07.456Z,14.30
2017-06-29T00:35:35.213Z,14.30
2017-06-29T00:38:02.773Z,14.40
2017-06-29T00:40:30.469Z,14.40
2017-06-29T00:42:58.069Z,14.40
2017-06-29T00:45:25.601Z,14.50
2017-06-29T00:47:53.177Z,14.50
2017-06-29T00:50:20.713Z,14.50
2017-06-29T00:52:48.341Z,14.60
2017-06-29T00:55:16.286Z,14.60
2017-06-29T00:57:43.886Z,14.60
2017-06-29T01:00:12.242Z,14.70
2017-06-29T01:02:39.766Z,14.70
2017-06-29T01:05:07.273Z,14.80
2017-06-29T01:07:34.795Z,14.80
2017-06-29T01:10:02.301Z,14.90
2017-06-29T01:12:30.663Z,14.90
2017-06-29T01:14:59.009Z,14.90
2017-06-29T01:17:26.697Z,14.90
2017-06-29T01:19:54.253Z,14.90
2017-06-29T01:22:22.721Z,14.90
2017-06-29T01:24:50.393Z,14.90
2017-06-29T01:27:18.669Z,14.90
2017-06-29T01:29:46.969Z,15.00
2017-06-29T01:32:14.476Z,15.00
2017-06-29T01:34:42.003Z,15.00
2017-06-29T01:37:09.588Z,14.90
2017-06-29T01:39:37.527Z,14.90
2017-06-29T01:42:05.080Z,14.80
2017-06-29T01:44:33.065Z,14.80
2017-06-29T01:47:00.688Z,14.90
2017-06-29T01:49:28.429Z,14.90
2017-06-29T01:51:56.946Z,14.90
2017-06-29T01:54:24.560Z,14.90
2017-06-29T01:56:52.140Z,14.90
2017-06-29T01:59:20.559Z,15.10
2017-06-29T02:01:48.087Z,15.10
2017-06-29T02:04:15.594Z,15.10
2017-06-29T02:06:43.338Z,15.00
2017-06-29T02:09:10.903Z,14.90
2017-06-29T02:11:38.468Z,14.90
2017-06-29T02:14:06.934Z,14.90
2017-06-29T02:16:34.710Z,14.90
2017-06-29T02:19:02.265Z,14.90
2017-06-29T02:21:29.813Z,14.90
2017-06-29T02:23:57.361Z,14.90
2017-06-29T02:26:24.869Z,14.90
2017-06-29T02:28:53.204Z,15.00
2017-06-29T02:31:20.793Z,15.00
2017-06-29T02:33:48.627Z,15.00
2017-06-29T02:36:16.231Z,15.00
2017-06-29T02:38:44.587Z,15.00
2017-06-29T02:41:12.960Z,15.00
2017-06-29T02:43:41.386Z,14.90
2017-06-29T02:46:08.916Z,14.90
2017-06-29T02:48:36.973Z,14.90
2017-06-29T02:51:04.536Z,14.90
2017-06-29T02:53:33.138Z,14.90
2017-06-29T02:56:00.668Z,14.90
2017-06-29T02:58:28.966Z,14.90
2017-06-29T03:00:56.766Z,14.90
2017-06-29T03:03:24.421Z,15.00
2017-06-29T03:05:51.944Z,14.90
2017-06-29T03:08:19.525Z,14.90
2017-06-29T03:10:47.096Z,14.90
2017-06-29T03:13:14.757Z,14.90
2017-06-29T03:15:42.311Z,14.90
2017-06-29T03:18:09.878Z,14.80
2017-06-29T03:20:37.414Z,14.90
2017-06-29T03:23:04.961Z,14.90
2017-06-29T03:25:32.513Z,14.90
2017-06-29T03:28:00.072Z,14.90
2017-06-29T03:30:27.968Z,14.90
2017-06-29T03:32:55.579Z,14.90
2017-06-29T03:35:23.853Z,15.00
2017-06-29T03:37:52.207Z,15.00
2017-06-29T03:40:19.723Z,15.00
2017-06-29T03:42:47.344Z,15.10
2017-06-29T03:45:15.717Z,15.10
2017-06-29T03:47:44.348Z,15.10
2017-06-29T03:50:11.921Z,15.10
2017-06-29T03:52:39.454Z,15.10
2017-06-29T03:55:07.047Z,15.10
2017-06-29T03:57:34.574Z,15.10
2017-06-29T04:00:02.451Z,15.10
2017-06-29T04:02:29.957Z,15.10
2017-06-29T04:04:58.248Z,15.20
2017-06-29T04:07:25.818Z,15.10
2017-06-29T04:09:53.358Z,15.20
2017-06-29T04:12:20.900Z,15.30
2017-06-29T04:14:48.462Z,15.20
2017-06-29T04:17:16.053Z,15.30
2017-06-29T04:19:43.561Z,15.30
2017-06-29T04:22:11.228Z,15.40
2017-06-29T04:24:39.508Z,15.50
2017-06-29T04:27:07.065Z,15.50
2017-06-29T04:29:35.350Z,15.50
2017-06-29T04:32:02.916Z,15.50
2017-06-29T04:34:30.460Z,15.50
2017-06-29T04:36:58.763Z,15.50
2017-06-29T04:39:26.353Z,15.50
2017-06-29T04:41:53.940Z,15.50
2017-06-29T04:44:22.576Z,15.60
2017-06-29T04:46:50.120Z,15.60
2017-06-29T04:49:17.752Z,15.60
2017-06-29T04:51:45.669Z,15.60
2017-06-29T04:54:13.261Z,15.60
2017-06-29T04:56:41.577Z,15.70
2017-06-29T04:59:09.097Z,15.70
2017-06-29T05:01:36.673Z,15.80
2017-06-29T05:04:05.138Z,15.80
2017-06-29T05:06:32.817Z,15.80
2017-06-29T05:09:00.674Z,15.90
2017-06-29T05:11:28.230Z,15.90
2017-06-29T05:13:56.228Z,15.90
2017-06-29T05:16:23.736Z,16.00
2017-06-29T05:18:52.119Z,16.10
2017-06-29T05:21:20.393Z,16.10
2017-06-29T05:23:48.764Z,16.20
2017-06-29T05:26:17.041Z,16.20
2017-06-29T05:28:45.565Z,16.30
2017-06-29T05:31:13.138Z,16.30
2017-06-29T05:33:40.636Z,16.30
2017-06-29T05:36:08.941Z,16.50
2017-06-29T05:38:36.472Z,16.50
2017-06-29T05:41:04.038Z,16.60
2017-06-29T05:43:31.534Z,16.60
2017-06-29T05:45:59.097Z,16.60
2017-06-29T05:48:26.616Z,16.60
2017-06-29T05:50:54.124Z,16.70
2017-06-29T05:53:21.644Z,16.70
2017-06-29T05:55:49.147Z,16.80
2017-06-29T05:58:16.743Z,16.90
2017-06-29T06:00:44.502Z,16.90
2017-06-29T06:03:12.056Z,16.90
2017-06-29T06:05:39.909Z,16.90
2017-06-29T06:08:07.454Z,17.00
2017-06-29T06:20:33.744Z,17.30
2017-06-29T06:30:29.512Z,17.20
2017-06-29T06:40:23.857Z,17.10
2017-06-29T06:42:51.353Z,17.30
2017-06-29T06:45:20.879Z,17.40
2017-06-29T06:47:48.599Z,17.40
2017-06-29T06:50:16.917Z,17.60
2017-06-29T06:52:44.456Z,17.80
2017-06-29T06:55:12.297Z,17.90
2017-06-29T06:57:39.818Z,18.00
2017-06-29T07:00:07.321Z,17.90
2017-06-29T07:02:35.158Z,18.00
2017-06-29T07:05:02.845Z,18.00
2017-06-29T07:07:30.751Z,18.10
2017-06-29T07:09:59.169Z,17.80
2017-06-29T07:12:27.474Z,17.60
2017-06-29T07:14:55.050Z,18.00
2017-06-29T07:17:23.349Z,17.40
2017-06-29T07:19:51.249Z,17.50
2017-06-29T07:22:18.789Z,17.40
2017-06-29T07:27:16.481Z,17.10
2017-06-29T07:29:44.037Z,17.20
2017-06-29T07:32:11.600Z,17.30
2017-06-29T07:34:39.148Z,17.00
2017-06-29T07:37:06.678Z,16.90
2017-06-29T07:39:34.272Z,16.90
2017-06-29T07:42:01.827Z,16.90
2017-06-29T07:44:29.448Z,16.90
2017-06-29T07:46:57.040Z,17.00
2017-06-29T07:49:25.419Z,16.90
2017-06-29T07:51:54.658Z,16.80
2017-06-29T07:54:23.935Z,16.70
2017-06-29T07:56:52.576Z,16.80
2017-06-29T07:59:21.842Z,16.70
2017-06-29T08:01:50.164Z,16.60
2017-06-29T08:04:17.828Z,16.70
2017-06-29T08:06:46.946Z,16.80
2017-06-29T08:09:15.957Z,16.60
2017-06-29T08:11:44.601Z,16.80
2017-06-29T08:14:13.266Z,16.80
2017-06-29T08:16:40.848Z,16.80
2017-06-29T08:19:09.577Z,16.90
2017-06-29T08:21:37.901Z,16.90
2017-06-29T08:24:05.510Z,16.90
2017-06-29T08:26:33.153Z,16.80
2017-06-29T08:29:00.741Z,17.00
2017-06-29T08:31:28.324Z,17.00
2017-06-29T08:33:55.985Z,17.00
2017-06-29T08:36:23.801Z,17.00
2017-06-29T08:38:52.072Z,16.10
2017-06-29T08:41:19.736Z,17.00
2017-06-29T08:43:48.009Z,15.70
2017-06-29T08:46:16.059Z,16.80
2017-06-29T08:48:43.604Z,16.90
2017-06-29T08:51:12.063Z,17.00
2017-06-29T08:53:39.680Z,17.00
2017-06-29T08:56:07.985Z,16.90
2017-06-29T08:58:35.601Z,16.90
2017-06-29T09:01:03.154Z,16.90
2017-06-29T09:03:30.684Z,16.90
2017-06-29T09:05:58.540Z,17.00
2017-06-29T09:08:26.106Z,16.90
2017-06-29T09:10:53.681Z,17.00
2017-06-29T09:13:21.217Z,17.00
2017-06-29T09:15:48.930Z,17.00
2017-06-29T09:18:17.356Z,17.00
2017-06-29T09:20:45.037Z,17.10
2017-06-29T09:23:12.721Z,17.10
2017-06-29T09:28:10.365Z,16.90
2017-06-29T09:30:39.033Z,16.90
2017-06-29T09:33:06.846Z,16.90
2017-06-29T09:35:35.162Z,16.80
2017-06-29T09:38:02.965Z,16.80
2017-06-29T09:40:30.511Z,16.80
2017-06-29T09:42:58.101Z,16.80
2017-06-29T09:45:25.706Z,16.70
2017-06-29T09:47:53.517Z,16.70
2017-06-29T09:50:21.960Z,16.60
2017-06-29T09:52:49.493Z,16.60
2017-06-29T09:55:17.377Z,16.60
2017-06-29T09:57:45.058Z,16.70
2017-06-29T10:00:13.620Z,16.50
2017-06-29T10:02:41.256Z,16.50
2017-06-29T10:05:09.579Z,16.50
2017-06-29T10:07:37.245Z,16.40
2017-06-29T10:10:05.537Z,16.50
2017-06-29T10:12:33.894Z,16.40
2017-06-29T10:15:02.928Z,16.30
2017-06-29T10:17:30.456Z,16.40
2017-06-29T10:19:59.037Z,16.30
2017-06-29T10:22:27.332Z,16.20
2017-06-29T10:24:55.128Z,16.20
2017-06-29T10:27:23.421Z,16.20
2017-06-29T10:29:51.151Z,16.20
2017-06-29T10:32:18.745Z,16.10
2017-06-29T10:34:47.320Z,16.10
2017-06-29T10:37:15.617Z,16.10
2017-06-29T10:39:43.987Z,16.20
2017-06-29T10:42:11.489Z,16.10
2017-06-29T10:44:39.785Z,16.00
2017-06-29T10:47:08.106Z,15.90
2017-06-29T10:49:35.783Z,15.90
2017-06-29T10:52:03.593Z,16.00
2017-06-29T10:54:32.357Z,15.80
2017-06-29T10:56:59.940Z,15.90
2017-06-29T10:59:27.582Z,15.90
2017-06-29T11:01:55.188Z,16.00
2017-06-29T11:04:23.507Z,16.00
2017-06-29T11:06:51.365Z,15.90
2017-06-29T11:09:18.868Z,16.00
2017-06-29T11:11:46.381Z,15.90
2017-06-29T11:14:13.941Z,15.90
2017-06-29T11:16:41.580Z,15.90
2017-06-29T11:19:09.373Z,16.10
2017-06-29T11:21:36.913Z,16.00
2017-06-29T11:24:04.870Z,16.10
2017-06-29T11:26:32.705Z,16.10
2017-06-29T11:29:00.649Z,16.20
2017-06-29T11:31:29.041Z,16.70
2017-06-29T11:33:56.878Z,16.20
2017-06-29T11:36:24.436Z,16.20
2017-06-29T11:38:51.940Z,16.30
2017-06-29T11:53:45.527Z,16.70
2017-06-29T12:18:35.090Z,16.90
2017-06-29T12:23:33.453Z,17.20
2017-06-29T13:00:46.637Z,17.50
2017-06-29T14:22:43.101Z,16.50
2017-06-29T14:25:10.673Z,16.20
2017-06-29T14:27:38.368Z,16.00
2017-06-29T14:30:05.921Z,15.90
2017-06-29T14:32:33.800Z,15.70
2017-06-29T14:35:01.344Z,15.70
2017-06-29T14:37:29.049Z,15.40
2017-06-29T14:40:01.077Z,15.20
2017-06-29T14:42:28.965Z,15.20
2017-06-29T14:44:56.523Z,15.10
2017-06-29T14:47:24.167Z,15.00
2017-06-29T14:49:52.716Z,15.10
2017-06-29T14:52:20.217Z,15.10
2017-06-29T14:54:48.514Z,15.10
2017-06-29T14:57:16.272Z,15.10
2017-06-29T14:59:44.084Z,15.10
2017-06-29T15:02:11.585Z,15.20
2017-06-29T15:04:40.242Z,15.10
2017-06-29T15:07:07.761Z,15.10
2017-06-29T15:09:35.655Z,15.10
2017-06-29T15:12:03.635Z,15.10
2017-06-29T15:14:31.180Z,15.00
2017-06-29T15:16:58.797Z,14.90
2017-06-29T15:19:26.419Z,14.70
2017-06-29T15:21:54.091Z,14.70
2017-06-29T15:24:22.839Z,14.60
2017-06-29T15:26:50.955Z,14.60
2017-06-29T15:29:18.476Z,14.60
2017-06-29T15:31:46.610Z,14.50
2017-06-29T15:34:14.971Z,14.30
2017-06-29T15:36:42.588Z,14.30
2017-06-29T15:39:10.856Z,14.30
2017-06-29T15:41:38.482Z,14.30
2017-06-29T15:44:07.450Z,14.30
2017-06-29T15:46:36.258Z,14.40
2017-06-29T15:49:04.235Z,14.50
2017-06-29T15:51:31.997Z,14.60
2017-06-29T15:53:59.869Z,14.70
2017-06-29T15:56:27.393Z,14.70
2017-06-29T15:58:54.892Z,14.80
2017-06-29T16:01:22.504Z,14.80
2017-06-29T16:03:50.070Z,14.80
2017-06-29T16:06:17.598Z,14.90
2017-06-29T16:08:46.334Z,15.30
2017-06-29T16:11:13.919Z,15.30
2017-06-29T16:13:42.325Z,15.40
2017-06-29T16:16:11.214Z,15.50
2017-06-29T16:18:40.112Z,15.40
2017-06-29T16:21:07.924Z,15.40
2017-06-29T16:23:35.557Z,15.30
2017-06-29T16:26:03.115Z,15.20
2017-06-29T16:28:30.735Z,15.30
2017-06-29T16:30:59.188Z,15.50
2017-06-29T16:33:26.789Z,15.50
2017-06-29T16:35:54.369Z,15.50
2017-06-29T16:38:23.329Z,15.60
2017-06-29T19:12:22.491Z,15.20
2017-06-29T19:14:50.945Z,15.20
2017-06-29T19:17:19.348Z,15.10
2017-06-29T19:24:44.829Z,14.30
2017-06-29T19:27:12.432Z,14.90
2017-06-29T19:29:40.702Z,14.90
2017-06-29T19:32:08.210Z,14.90
2017-06-29T19:34:35.838Z,14.90
2017-06-29T19:42:01.951Z,14.60
2017-06-29T19:44:29.664Z,14.90
2017-06-29T19:46:57.210Z,14.90
2017-06-29T19:49:26.157Z,14.80
2017-06-29T19:51:53.792Z,14.80
2017-06-29T19:54:21.466Z,14.80
2017-06-29T19:56:49.045Z,14.80
2017-06-29T19:59:16.657Z,14.80
2017-06-29T20:01:44.211Z,14.80
2017-06-29T20:04:11.865Z,14.80
2017-06-29T20:06:41.465Z,14.70
2017-06-29T20:09:08.965Z,14.70
2017-06-29T20:11:36.682Z,14.80
2017-06-29T20:14:04.415Z,14.80
2017-06-29T20:16:32.985Z,14.80
2017-06-29T20:19:00.586Z,14.80
2017-06-29T20:21:29.245Z,14.80
2017-06-29T20:23:56.926Z,14.80
2017-06-29T20:26:24.705Z,14.80
2017-06-29T20:28:52.318Z,14.70
2017-06-29T20:31:20.080Z,14.70
2017-06-29T20:33:48.841Z,14.70
2017-06-29T20:36:16.503Z,14.70
2017-06-29T20:38:44.165Z,14.60
2017-06-29T20:41:12.208Z,14.60
2017-06-29T20:43:39.980Z,14.60
2017-06-29T20:46:07.861Z,14.50
2017-06-29T20:56:03.719Z,14.60
2017-06-29T20:58:31.473Z,14.50
2017-06-29T21:00:58.977Z,14.60
2017-06-29T21:03:26.557Z,14.60
2017-06-29T21:05:55.135Z,14.50
2017-06-29T21:08:22.980Z,14.50
2017-06-29T21:10:51.074Z,14.50
2017-06-29T21:13:19.585Z,14.50
2017-06-29T21:15:47.349Z,14.50
2017-06-29T21:18:14.853Z,14.50
2017-06-29T21:20:42.477Z,14.60
2017-06-29T21:23:10.235Z,14.60
2017-06-29T21:25:37.838Z,14.50
2017-06-29T21:28:06.898Z,14.50
2017-06-29T21:30:34.724Z,14.50
2017-06-29T21:33:02.246Z,14.50
2017-06-29T21:35:29.948Z,14.50
2017-06-29T21:37:57.517Z,14.50
2017-06-29T21:40:25.285Z,14.50
2017-06-29T21:42:52.847Z,14.50
2017-06-29T21:45:20.495Z,14.40
2017-06-29T21:47:48.076Z,14.50
2017-06-29T21:50:15.593Z,14.50
2017-06-29T21:52:43.430Z,14.60
2017-06-29T21:55:11.697Z,14.60
2017-06-29T21:57:39.566Z,14.60
2017-06-29T22:00:07.892Z,14.60
2017-06-29T22:02:35.658Z,14.60
2017-06-29T22:05:03.419Z,14.60
2017-06-29T22:07:30.917Z,14.60
2017-06-29T22:09:59.205Z,14.60
2017-06-29T22:12:27.502Z,14.60
2017-06-29T22:14:55.624Z,14.60
2017-06-29T22:17:23.446Z,14.60
2017-06-29T22:19:52.042Z,14.60
2017-06-29T22:22:19.656Z,14.70
2017-06-29T22:24:47.981Z,14.60
2017-06-29T22:27:17.068Z,14.60
2017-06-29T22:29:44.932Z,14.60
2017-06-29T22:32:12.797Z,14.60
2017-06-29T22:34:40.560Z,14.50
2017-06-29T22:37:08.121Z,14.50
2017-06-29T22:39:35.880Z,14.50
2017-06-29T22:42:04.053Z,14.50
2017-06-29T22:44:31.916Z,14.50
2017-06-29T22:46:59.413Z,14.50
2017-06-29T22:49:27.736Z,14.50
2017-06-29T22:51:55.240Z,14.50
2017-06-29T22:54:23.068Z,14.60
2017-06-29T22:56:50.725Z,14.60
2017-06-29T22:59:18.335Z,14.60
2017-06-29T23:01:46.685Z,14.60
2017-06-29T23:04:14.328Z,14.50
2017-06-29T23:06:41.868Z,14.50
2017-06-29T23:09:09.463Z,14.50
2017-06-29T23:11:37.305Z,14.40
2017-06-29T23:14:05.105Z,14.40
2017-06-29T23:16:32.701Z,14.30
2017-06-29T23:19:00.489Z,14.40
2017-06-29T23:21:28.014Z,14.40
2017-06-29T23:23:55.606Z,14.40
2017-06-29T23:26:23.110Z,14.40
2017-06-29T23:28:51.392Z,14.30
2017-06-29T23:31:18.894Z,14.30
2017-06-29T23:33:46.478Z,14.30
2017-06-29T23:36:14.309Z,14.30
2017-06-29T23:38:41.940Z,14.30
2017-06-29T23:41:09.456Z,14.30
2017-06-29T23:43:37.207Z,14.20
2017-06-29T23:46:05.616Z,14.20
2017-06-29T23:48:33.933Z,14.20
2017-06-29T23:51:01.455Z,14.20
2017-06-29T23:53:29.764Z,14.10
2017-06-29T23:55:57.658Z,14.10
2017-06-29T23:58:26.117Z,14.10
